Time;durP1;ratioP1;P1;durP2;ratioP2;P2;SDS_P1;SDS_P2;PMS_P1;PMS_P2;Temp;Humidity;BMP_temperature;BMP_pressure;BME280_temperature;BME280_humidity;BME280_pressure;Samples;Min_cycle;Max_cycle;Signal;HPM_P1;HPM_P2
2023/01/19 00:01:13;;;;;;;263.40;24.92;;;;;;;7.51;69.75;97006.84;4349528;32;20099;-86
2023/01/19 00:03:39;;;;;;;21.58;9.27;;;;;;;7.43;69.69;97007.38;4349446;33;20079;-85
2023/01/19 00:06:05;;;;;;;21.35;9.55;;;;;;;7.79;69.18;96998.69;4349516;33;20110;-85
2023/01/19 00:08:31;;;;;;;131.30;15.82;;;;;;;7.98;68.36;97000.00;4349269;32;20125;-85
2023/01/19 00:10:56;;;;;;;32.17;11.07;;;;;;;7.88;68.98;97005.91;4349448;32;20452;-85
2023/01/19 00:13:22;;;;;;;34.28;10.30;;;;;;;7.92;68.91;97003.91;4349393;32;20095;-86
2023/01/19 00:15:47;;;;;;;200.62;20.90;;;;;;;8.18;67.71;96995.91;4349147;32;20150;-85
2023/01/19 00:18:12;;;;;;;135.05;14.87;;;;;;;7.26;71.01;97013.81;4349572;32;20108;-86
2023/01/19 00:20:39;;;;;;;172.10;18.45;;;;;;;7.57;69.68;97004.66;4349513;33;20125;-85
2023/01/19 00:23:06;;;;;;;29.55;8.95;;;;;;;7.65;69.72;97006.72;4349620;32;20178;-86
2023/01/19 00:25:31;;;;;;;18.57;9.00;;;;;;;7.78;68.71;96997.00;4349604;32;20095;-85
2023/01/19 00:27:57;;;;;;;90.85;13.10;;;;;;;7.91;68.50;96999.59;4349395;32;20153;-85
2023/01/19 00:30:22;;;;;;;17.80;7.65;;;;;;;7.83;68.59;97000.16;4349291;32;20103;-86
2023/01/19 00:32:48;;;;;;;23.73;8.98;;;;;;;7.68;69.18;96996.84;4349546;33;20142;-86
2023/01/19 00:35:14;;;;;;;93.20;12.68;;;;;;;7.56;69.69;97000.34;4349346;32;20153;-85
2023/01/19 00:37:39;;;;;;;41.58;10.02;;;;;;;7.06;71.81;97002.94;4349446;32;20108;-85
2023/01/19 00:40:06;;;;;;;155.95;17.75;;;;;;;7.13;71.05;96992.88;4348116;33;20172;-88
2023/01/19 00:42:40;;;;;;;42.72;10.10;;;;;;;6.84;72.80;97015.84;4347856;33;20452;-89
2023/01/19 00:45:07;;;;;;;199.23;20.95;;;;;;;6.52;74.64;97012.75;4348072;33;20181;-87
2023/01/19 00:47:33;;;;;;;67.40;11.27;;;;;;;6.24;75.52;97014.59;4349025;33;20087;-87
2023/01/19 00:49:58;;;;;;;161.90;17.35;;;;;;;6.82;73.23;97007.25;4348987;32;20474;-87
2023/01/19 00:52:23;;;;;;;28.80;9.73;;;;;;;6.96;72.52;97001.06;4348874;32;20117;-88
2023/01/19 00:54:49;;;;;;;20.12;8.30;;;;;;;5.75;77.79;97012.47;4349546;32;20094;-88
2023/01/19 00:57:15;;;;;;;17.70;7.18;;;;;;;6.40;74.81;96999.56;4350718;33;20338;-88
2023/01/19 00:59:40;;;;;;;15.48;7.18;;;;;;;6.68;73.05;96993.31;4350830;32;20524;-87
2023/01/19 01:02:06;;;;;;;14.32;6.20;;;;;;;6.58;73.58;96994.03;4350736;33;20100;-88
2023/01/19 01:04:31;;;;;;;12.52;5.90;;;;;;;6.63;73.68;96999.81;4350690;33;20431;-87
2023/01/19 01:06:57;;;;;;;15.50;6.30;;;;;;;6.73;72.64;97002.62;4349545;33;20159;-89
2023/01/19 01:09:23;;;;;;;15.35;6.15;;;;;;;6.43;73.26;96999.34;4350534;33;20384;-89
2023/01/19 01:11:48;;;;;;;13.95;6.12;;;;;;;6.28;75.02;96984.69;4350589;32;20486;-88
2023/01/19 01:14:14;;;;;;;12.93;5.60;;;;;;;6.54;73.78;96979.47;4350683;32;20095;-89
2023/01/19 01:16:39;;;;;;;13.43;5.32;;;;;;;6.54;73.80;96996.00;4350565;32;20090;-88
2023/01/19 01:19:05;;;;;;;11.63;4.55;;;;;;;6.28;73.92;96987.31;4350609;32;20104;-89
2023/01/19 01:21:30;;;;;;;12.25;4.50;;;;;;;6.30;74.37;96988.88;4350582;32;20440;-89
2023/01/19 01:23:55;;;;;;;9.35;3.00;;;;;;;6.79;72.23;96994.38;4350506;33;20432;-89
2023/01/19 01:26:21;;;;;;;8.77;3.20;;;;;;;6.47;72.90;96999.97;4350571;33;20095;-90
2023/01/19 01:28:46;;;;;;;8.18;2.75;;;;;;;6.25;73.48;96997.94;4350445;33;20141;-89
2023/01/19 01:31:11;;;;;;;7.55;2.50;;;;;;;6.43;73.05;96999.34;4350426;33;20146;-87
2023/01/19 01:33:37;;;;;;;7.78;2.60;;;;;;;6.22;73.91;96992.91;4349370;33;20771;-87
2023/01/19 01:36:03;;;;;;;8.13;2.53;;;;;;;6.22;73.90;97000.75;4350463;33;20107;-87
2023/01/19 01:38:28;;;;;;;8.70;2.40;;;;;;;6.36;73.23;96987.62;4350447;32;20112;-89
2023/01/19 01:40:54;;;;;;;6.97;2.30;;;;;;;6.17;73.48;96987.16;4350479;32;20162;-88
2023/01/19 01:43:19;;;;;;;6.03;2.00;;;;;;;6.67;71.80;96980.34;4350361;32;20118;-88
2023/01/19 01:45:45;;;;;;;5.47;1.67;;;;;;;6.72;71.11;96986.06;4350383;32;20103;-87
2023/01/19 01:48:16;;;;;;;6.60;1.83;;;;;;;6.52;71.73;96984.81;4350548;32;20108;-88
2023/01/19 01:51:23;;;;;;;5.60;1.70;;;;;;;6.75;70.69;96990.28;4350418;33;20113;-87
2023/01/19 01:54:09;;;;;;;5.20;1.80;;;;;;;6.97;69.92;97000.09;4360092;32;20113;-89
2023/01/19 01:56:39;;;;;;;6.68;2.00;;;;;;;6.33;71.77;97000.06;4350383;32;20086;-88
2023/01/19 01:59:08;;;;;;;7.03;1.80;;;;;;;6.10;72.95;97008.50;4361475;32;20368;-88
2023/01/19 02:04:18;;;;;;;5.30;1.65;;;;;;;6.36;72.04;97023.41;4350395;33;20153;-88
2023/01/19 02:14:56;;;;;;;5.95;1.50;;;;;;;6.02;72.09;97030.81;4350260;33;20137;-87
2023/01/19 02:17:22;;;;;;;5.07;1.37;;;;;;;6.43;70.56;97022.03;4350132;33;20095;-88
2023/01/19 02:19:47;;;;;;;5.85;1.70;;;;;;;6.32;70.98;97000.97;4350163;32;20193;-87
2023/01/19 02:22:22;;;;;;;5.00;1.35;;;;;;;5.89;72.32;96981.06;4350082;33;20095;-87
2023/01/19 02:24:48;;;;;;;3.85;1.30;;;;;;;5.75;72.61;96981.13;4350074;32;20078;-88
2023/01/19 02:27:14;;;;;;;3.00;1.42;;;;;;;6.07;71.52;96979.09;4361671;32;20490;-87
2023/01/19 02:29:40;;;;;;;4.03;1.30;;;;;;;5.80;72.93;96997.37;4348933;33;20108;-87
2023/01/19 02:32:05;;;;;;;4.10;1.20;;;;;;;5.55;73.67;97018.97;4350326;32;20087;-87
2023/01/19 02:34:31;;;;;;;4.05;1.15;;;;;;;5.39;75.26;97033.00;4349297;33;20113;-87
2023/01/19 02:37:05;;;;;;;4.20;1.15;;;;;;;5.01;76.41;97040.53;4349168;33;20154;-87
2023/01/19 02:39:37;;;;;;;3.28;1.10;;;;;;;5.87;72.83;97023.00;4350080;32;20138;-87
2023/01/19 02:42:06;;;;;;;3.78;1.10;;;;;;;5.62;72.62;97007.19;4373588;32;20133;-86
2023/01/19 02:44:32;;;;;;;3.75;1.10;;;;;;;5.99;71.30;96995.28;4361207;32;20090;-87
2023/01/19 02:46:58;;;;;;;4.18;1.20;;;;;;;6.20;70.44;97000.00;4348859;33;20655;-87
2023/01/19 02:49:27;;;;;;;3.35;1.02;;;;;;;5.57;72.30;96996.22;4349760;32;20170;-87
2023/01/19 02:51:52;;;;;;;2.37;1.00;;;;;;;5.79;71.63;96980.00;4349998;33;20166;-87
2023/01/19 02:54:39;;;;;;;3.08;1.02;;;;;;;6.00;70.77;96972.56;4348838;33;20103;-87
2023/01/19 02:57:19;;;;;;;2.92;0.98;;;;;;;5.51;72.34;96979.97;4361243;32;20105;-87
2023/01/19 02:59:47;;;;;;;2.75;1.10;;;;;;;5.53;72.37;96995.56;4350008;33;20099;-87
2023/01/19 03:02:25;;;;;;;2.67;0.90;;;;;;;5.27;73.26;97003.25;4349952;33;20134;-88
2023/01/19 03:05:18;;;;;;;2.72;0.90;;;;;;;5.50;72.46;97008.78;4349808;33;20435;-86
2023/01/19 03:08:06;;;;;;;3.22;1.10;;;;;;;5.80;70.58;97005.19;4350239;33;20105;-87
2023/01/19 03:10:53;;;;;;;1.40;0.60;;;;;;;5.52;72.16;97006.94;4349961;32;20099;-88
2023/01/19 03:13:32;;;;;;;1.98;0.75;;;;;;;5.55;71.94;96998.91;4349905;32;20122;-86
2023/01/19 03:16:04;;;;;;;1.33;0.60;;;;;;;4.99;73.98;97009.31;4348748;33;20087;-86
2023/01/19 03:18:31;;;;;;;2.42;0.90;;;;;;;5.60;71.81;97022.13;4347982;33;20083;-86
2023/01/19 03:21:00;;;;;;;4.00;0.85;;;;;;;5.29;72.13;97037.94;4349844;32;20118;-86
2023/01/19 03:23:29;;;;;;;2.17;0.80;;;;;;;5.34;72.40;97034.19;4361096;32;20559;-88
2023/01/19 03:25:56;;;;;;;3.28;0.82;;;;;;;5.56;71.87;97042.38;4349872;32;20103;-89
2023/01/19 03:28:23;;;;;;;1.52;0.68;;;;;;;5.62;71.69;97034.16;4348630;33;20109;-89
2023/01/19 03:30:52;;;;;;;1.98;0.70;;;;;;;5.83;70.81;97020.66;4349554;32;20130;-88
2023/01/19 03:33:26;;;;;;;1.02;0.50;;;;;;;5.54;71.87;96993.78;4348570;33;20182;-88
2023/01/19 03:35:56;;;;;;;2.28;0.70;;;;;;;5.69;71.31;96979.75;4360897;32;20091;-90
2023/01/19 03:38:25;;;;;;;2.55;0.70;;;;;;;5.85;70.69;96975.22;4360938;32;20088;-88
2023/01/19 03:40:57;;;;;;;0.90;0.50;;;;;;;5.42;72.02;96953.59;4349610;32;20431;-89
2023/01/19 03:43:23;;;;;;;1.52;0.70;;;;;;;5.74;71.17;96951.56;4349863;32;20198;-90
2023/01/19 03:45:49;;;;;;;1.62;0.70;;;;;;;5.62;70.83;96947.09;4373405;32;20145;-87
2023/01/19 03:48:15;;;;;;;1.27;0.50;;;;;;;5.34;72.45;96946.25;4349541;32;20171;-89
2023/01/19 03:50:40;;;;;;;1.80;0.70;;;;;;;5.22;72.71;96962.69;4349503;32;20166;-88
2023/01/19 03:53:12;;;;;;;2.42;0.70;;;;;;;5.72;71.02;96967.31;4349633;33;20117;-88
2023/01/19 03:55:39;;;;;;;1.37;0.60;;;;;;;5.30;72.54;96976.94;4349537;32;20091;-88
2023/01/19 03:58:05;;;;;;;2.37;0.60;;;;;;;5.36;71.85;96972.28;4360660;32;20205;-87
2023/01/19 04:00:32;;;;;;;2.75;0.80;;;;;;;5.18;72.33;96969.06;4349897;32;20122;-86
2023/01/19 04:02:57;;;;;;;1.30;0.60;;;;;;;5.42;71.93;96974.50;4349481;32;20697;-87
2023/01/19 04:05:23;;;;;;;1.45;0.62;;;;;;;5.36;71.61;96995.78;4349487;32;20135;-87
2023/01/19 04:07:49;;;;;;;2.03;0.62;;;;;;;5.62;71.05;97002.81;4349428;32;20091;-89
2023/01/19 04:10:19;;;;;;;2.37;0.80;;;;;;;6.03;69.95;96998.53;4349450;32;20107;-88
2023/01/19 04:12:44;;;;;;;2.55;1.05;;;;;;;6.22;69.25;96980.69;4349596;32;20103;-89
2023/01/19 04:15:10;;;;;;;3.05;0.98;;;;;;;5.97;69.84;97002.38;4349302;32;20091;-88
2023/01/19 04:17:37;;;;;;;3.25;1.00;;;;;;;5.23;72.31;97022.63;4349439;32;20087;-89
2023/01/19 04:20:03;;;;;;;2.62;1.00;;;;;;;5.45;71.87;97016.09;4360607;32;20163;-89
2023/01/19 04:22:29;;;;;;;3.72;1.10;;;;;;;5.42;71.93;97021.50;4349352;32;20429;-89
2023/01/19 04:24:54;;;;;;;3.92;1.08;;;;;;;5.55;71.51;97011.97;4349414;32;20161;-88
2023/01/19 04:27:20;;;;;;;2.28;0.85;;;;;;;4.89;74.24;97016.84;4349189;32;20151;-89
2023/01/19 04:29:45;;;;;;;3.58;1.00;;;;;;;4.87;73.03;97007.47;4348909;32;20150;-90
2023/01/19 04:32:12;;;;;;;3.22;1.02;;;;;;;5.03;72.87;96999.53;4349312;32;20095;-89
2023/01/19 04:34:38;;;;;;;3.60;0.90;;;;;;;5.17;72.98;96990.84;4349028;32;20087;-88
2023/01/19 04:37:03;;;;;;;2.70;0.73;;;;;;;5.09;72.31;96986.94;4349135;33;20381;-89
2023/01/19 04:39:29;;;;;;;1.40;0.70;;;;;;;5.27;71.40;96991.94;4349229;32;20163;-87
2023/01/19 04:41:56;;;;;;;2.35;0.68;;;;;;;5.05;72.55;96987.22;4349113;32;20111;-88
2023/01/19 04:44:21;;;;;;;1.95;0.70;;;;;;;5.43;70.73;96987.47;4349236;32;20114;-88
2023/01/19 04:46:47;;;;;;;1.95;0.90;;;;;;;5.32;71.28;96971.62;4349048;33;20083;-89
2023/01/19 04:49:13;;;;;;;1.58;0.68;;;;;;;4.91;72.85;96970.62;4348947;33;20107;-88
2023/01/19 04:51:38;;;;;;;3.50;0.88;;;;;;;5.30;71.64;96970.88;4348028;33;20510;-88
2023/01/19 04:54:04;;;;;;;1.35;0.62;;;;;;;5.45;70.96;96956.88;4348861;33;20087;-87
2023/01/19 04:56:29;;;;;;;2.67;1.00;;;;;;;5.35;71.34;96987.12;4356886;32;20098;-88
2023/01/19 04:58:54;;;;;;;2.53;0.70;;;;;;;5.35;70.89;96992.34;4363190;32;20127;-88
2023/01/19 05:01:20;;;;;;;2.62;0.90;;;;;;;5.14;71.60;96999.72;4363192;32;20107;-89
2023/01/19 05:03:45;;;;;;;1.98;0.70;;;;;;;4.83;72.32;97006.78;4362746;32;20351;-89
2023/01/19 05:06:11;;;;;;;2.20;0.70;;;;;;;4.95;71.82;97007.00;4363428;32;20109;-87
2023/01/19 05:08:37;;;;;;;1.23;0.50;;;;;;;5.53;69.98;97023.47;4363502;32;20267;-88
2023/01/19 05:11:02;;;;;;;0.90;0.30;;;;;;;5.20;70.86;97028.06;4363605;32;20095;-88
2023/01/19 05:13:27;;;;;;;0.60;0.30;;;;;;;5.32;70.62;97013.41;4363130;32;20205;-87
2023/01/19 05:15:53;;;;;;;0.98;0.45;;;;;;;5.05;71.84;97002.88;4363234;32;20117;-88
2023/01/19 05:18:18;;;;;;;1.35;0.40;;;;;;;5.54;69.70;96999.00;4376554;32;20115;-88
2023/01/19 05:20:44;;;;;;;0.90;0.40;;;;;;;5.50;70.17;97019.25;4363545;32;20099;-88
2023/01/19 05:23:09;;;;;;;1.42;0.40;;;;;;;5.02;71.20;97031.75;4374890;32;20239;-88
2023/01/19 05:25:35;;;;;;;1.60;0.50;;;;;;;5.15;70.13;97039.69;4363158;32;20336;-87
2023/01/19 05:28:01;;;;;;;1.20;0.50;;;;;;;5.18;69.85;97042.13;4363595;32;20508;-88
2023/01/19 05:30:26;;;;;;;3.28;0.50;;;;;;;5.13;70.13;97050.22;4363261;32;20522;-86
2023/01/19 05:32:52;;;;;;;1.90;0.60;;;;;;;5.32;69.10;97056.00;4362441;32;20091;-86
2023/01/19 05:35:17;;;;;;;1.50;0.50;;;;;;;5.40;69.39;97067.75;4363510;32;20095;-86
2023/01/19 05:37:43;;;;;;;0.77;0.40;;;;;;;5.30;69.14;97063.09;4363352;32;20114;-82
2023/01/19 05:40:09;;;;;;;1.92;0.50;;;;;;;4.74;70.43;97056.91;4363638;32;20134;-85
2023/01/19 05:42:35;;;;;;;1.45;0.55;;;;;;;5.04;70.17;97059.47;4365403;32;20082;-84
2023/01/19 05:45:01;;;;;;;1.62;0.50;;;;;;;4.50;71.32;97048.72;4365485;32;20481;-84
2023/01/19 05:47:28;;;;;;;0.80;0.40;;;;;;;5.14;69.98;97036.25;4365449;32;20104;-84
2023/01/19 05:49:54;;;;;;;1.85;0.60;;;;;;;4.97;70.75;97042.50;4364790;32;20095;-84
2023/01/19 05:52:20;;;;;;;1.00;0.50;;;;;;;4.70;70.73;97034.53;4365203;32;20137;-85
2023/01/19 05:54:47;;;;;;;1.65;0.50;;;;;;;5.20;70.05;97041.09;4376390;32;20499;-84
2023/01/19 05:57:13;;;;;;;1.55;0.50;;;;;;;5.54;68.83;97036.41;4365096;32;20363;-85
2023/01/19 05:59:38;;;;;;;1.98;0.60;;;;;;;5.67;68.16;97034.69;4364250;32;20178;-83
2023/01/19 06:02:04;;;;;;;1.20;0.52;;;;;;;5.41;68.05;97011.97;4365304;32;20087;-84
2023/01/19 06:04:29;;;;;;;1.67;0.60;;;;;;;5.01;69.87;97004.00;4365340;32;20380;-84
2023/01/19 06:06:55;;;;;;;1.27;0.52;;;;;;;5.22;69.72;97013.13;4364971;32;20134;-84
2023/01/19 06:09:20;;;;;;;1.58;0.60;;;;;;;5.31;69.77;97012.56;4364871;32;20087;-84
2023/01/19 06:11:46;;;;;;;1.85;0.73;;;;;;;4.88;71.15;97020.37;4364991;32;20482;-83
2023/01/19 06:14:11;;;;;;;0.90;0.55;;;;;;;5.08;70.89;97018.34;4364995;32;20083;-83
2023/01/19 06:16:37;;;;;;;2.20;0.70;;;;;;;4.48;73.04;97014.06;4364779;32;20177;-83
2023/01/19 06:19:03;;;;;;;2.75;0.70;;;;;;;5.01;71.26;96997.00;4364254;32;20143;-83
2023/01/19 06:21:28;;;;;;;2.15;0.88;;;;;;;5.06;71.06;96996.72;4363381;32;20095;-82
2023/01/19 06:23:53;;;;;;;3.00;0.80;;;;;;;4.74;72.94;97009.94;4364934;32;20113;-82
2023/01/19 06:26:19;;;;;;;3.33;0.80;;;;;;;4.53;73.70;97004.22;4363767;32;20456;-83
2023/01/19 06:28:45;;;;;;;3.75;0.90;;;;;;;4.58;73.85;96990.91;4364731;32;20113;-83
2023/01/19 06:31:10;;;;;;;4.07;1.02;;;;;;;4.09;75.70;96992.00;4364729;32;20095;-83
2023/01/19 06:33:36;;;;;;;2.75;1.00;;;;;;;4.22;75.77;96989.53;4364906;32;20368;-83
2023/01/19 06:36:01;;;;;;;2.70;1.00;;;;;;;4.17;76.14;96996.78;4364966;32;20094;-83
2023/01/19 06:38:27;;;;;;;3.75;1.05;;;;;;;4.52;74.75;97016.44;4364595;32;20095;-85
2023/01/19 06:40:54;;;;;;;5.43;1.30;;;;;;;4.83;72.97;97024.19;4364884;32;20095;-84
2023/01/19 06:43:20;;;;;;;3.00;1.17;;;;;;;4.89;72.79;97029.06;4365144;32;20117;-84
2023/01/19 06:45:46;;;;;;;3.97;1.40;;;;;;;4.64;73.49;97040.94;4364996;32;20118;-84
2023/01/19 06:48:11;;;;;;;5.93;1.70;;;;;;;4.65;74.09;97047.84;4376315;32;20164;-84
2023/01/19 06:50:36;;;;;;;6.60;1.92;;;;;;;4.73;73.14;97042.16;4363620;32;20095;-84
2023/01/19 06:53:02;;;;;;;6.55;1.90;;;;;;;4.82;73.21;97032.97;4374957;32;20113;-84
2023/01/19 06:55:27;;;;;;;6.65;2.00;;;;;;;4.78;73.30;97028.87;4364685;32;20095;-84
2023/01/19 06:57:57;;;;;;;8.85;2.58;;;;;;;4.80;73.49;97027.84;4364803;32;20099;-84
2023/01/19 07:00:23;;;;;;;8.43;2.60;;;;;;;4.73;73.86;97036.94;4363621;32;20117;-83
2023/01/19 07:02:48;;;;;;;8.10;2.45;;;;;;;5.11;72.28;97026.00;4364671;32;20095;-83
2023/01/19 07:05:14;;;;;;;9.60;3.20;;;;;;;5.13;72.35;97026.75;4360877;32;85134;-82
2023/01/19 07:07:41;;;;;;;9.02;2.80;;;;;;;5.30;71.75;97026.53;4378054;32;20133;-80
2023/01/19 07:10:08;;;;;;;8.55;2.83;;;;;;;5.41;71.32;97023.28;4381682;32;20122;-81
2023/01/19 07:12:34;;;;;;;9.93;3.00;;;;;;;5.32;71.93;97011.63;4355534;32;20509;-80
2023/01/19 07:14:59;;;;;;;11.70;3.60;;;;;;;5.36;71.01;97011.44;4360557;32;20108;-81
2023/01/19 07:17:25;;;;;;;10.40;3.30;;;;;;;4.89;72.88;97010.81;4364197;32;20091;-81
2023/01/19 07:19:51;;;;;;;10.95;3.90;;;;;;;5.28;71.96;97014.53;4363967;32;20082;-79
2023/01/19 07:22:16;;;;;;;9.93;3.40;;;;;;;4.84;73.51;97039.75;4363012;32;20424;-81
2023/01/19 07:24:42;;;;;;;10.90;3.65;;;;;;;4.89;74.00;97048.16;4388114;32;20440;-82
2023/01/19 07:27:07;;;;;;;10.80;3.97;;;;;;;4.84;74.03;97058.03;4364765;32;20117;-80
2023/01/19 07:29:32;;;;;;;10.70;3.90;;;;;;;4.89;74.22;97056.00;4388282;32;20122;-78
2023/01/19 07:31:58;;;;;;;10.75;3.65;;;;;;;5.07;73.10;97045.38;4364848;32;20218;-82
2023/01/19 07:34:23;;;;;;;11.98;4.47;;;;;;;4.83;74.01;97035.50;4388589;32;20174;-80
2023/01/19 07:36:49;;;;;;;11.90;4.60;;;;;;;4.90;74.25;97047.22;4364797;32;20153;-79
2023/01/19 07:39:14;;;;;;;12.77;4.80;;;;;;;4.69;74.82;97049.34;4364144;32;20121;-82
2023/01/19 07:41:40;;;;;;;11.93;4.75;;;;;;;4.61;75.30;97051.56;4364001;32;20393;-82
2023/01/19 07:44:06;;;;;;;17.17;4.60;;;;;;;4.49;75.92;97052.28;4387680;32;20456;-91
2023/01/19 07:46:31;;;;;;;14.73;4.40;;;;;;;4.99;73.97;97058.91;4363883;32;20090;-93
2023/01/19 07:48:57;;;;;;;11.80;4.35;;;;;;;4.66;75.60;97052.13;4363740;32;20105;-81
2023/01/19 07:51:22;;;;;;;12.00;4.47;;;;;;;4.78;74.81;97057.56;4363513;32;20125;-81
2023/01/19 07:53:50;;;;;;;12.27;4.37;;;;;;;4.77;75.12;97061.94;4363883;32;20118;-81
2023/01/19 07:56:16;;;;;;;11.43;3.97;;;;;;;4.64;76.03;97061.81;4363151;32;20206;-80
2023/01/19 07:58:42;;;;;;;11.73;4.70;;;;;;;4.45;76.17;97056.81;4364356;32;20462;-81
2023/01/19 08:01:09;;;;;;;11.43;4.37;;;;;;;4.66;75.73;97065.19;4363231;32;20088;-80
2023/01/19 08:03:35;;;;;;;11.80;4.32;;;;;;;5.22;73.66;97065.34;4384986;32;20149;-78
2023/01/19 08:06:01;;;;;;;12.23;4.35;;;;;;;5.14;73.47;97059.75;4366900;32;20104;-78
2023/01/19 08:08:28;;;;;;;11.02;4.20;;;;;;;5.00;73.74;97064.94;4370911;32;20113;-81
2023/01/19 08:10:54;;;;;;;11.23;4.30;;;;;;;4.92;74.41;97061.03;4368569;32;20086;-83
2023/01/19 08:13:19;;;;;;;13.05;4.57;;;;;;;4.83;74.67;97066.81;4370115;32;20177;-86
2023/01/19 08:15:48;;;;;;;12.57;4.32;;;;;;;4.98;73.56;97051.97;4369967;32;20151;-84
2023/01/19 08:18:14;;;;;;;12.80;4.95;;;;;;;4.92;74.36;97049.75;4377498;32;20419;-81
2023/01/19 08:20:40;;;;;;;11.35;4.50;;;;;;;4.68;75.04;97046.84;4370978;32;20122;-81
2023/01/19 08:23:05;;;;;;;13.77;4.62;;;;;;;5.13;74.16;97039.78;4367891;32;20107;-78
2023/01/19 08:25:41;;;;;;;14.43;4.97;;;;;;;4.68;75.09;97046.84;4360924;32;20337;-78
2023/01/19 08:28:07;;;;;;;12.13;4.93;;;;;;;4.99;74.29;97039.78;4361830;32;20099;-78
2023/01/19 08:30:33;;;;;;;12.32;4.82;;;;;;;4.89;74.70;97049.94;4368361;32;20083;-79
2023/01/19 08:33:06;;;;;;;13.90;5.15;;;;;;;4.98;74.53;97048.53;4358738;32;20146;-79
2023/01/19 08:35:37;;;;;;;15.10;5.82;;;;;;;4.75;75.29;97045.53;4358097;32;20226;-78
2023/01/19 08:38:04;;;;;;;14.48;5.72;;;;;;;4.97;74.86;97055.53;4356515;32;20087;-79
2023/01/19 08:40:33;;;;;;;15.25;5.95;;;;;;;4.96;74.41;97053.84;4380147;32;20091;-81
2023/01/19 08:43:02;;;;;;;15.20;6.45;;;;;;;5.02;74.34;97056.12;4367286;32;20459;-82
2023/01/19 08:45:29;;;;;;;16.08;6.57;;;;;;;5.26;73.39;97066.00;4357222;32;20123;-84
2023/01/19 08:47:57;;;;;;;16.10;7.12;;;;;;;4.97;73.67;97065.97;4357910;32;20099;-78
2023/01/19 08:50:24;;;;;;;17.17;7.28;;;;;;;5.02;74.62;97065.69;4355997;32;21293;-82
2023/01/19 08:52:49;;;;;;;18.58;7.95;;;;;;;5.03;74.10;97070.00;4360828;32;20110;-82
2023/01/19 08:55:15;;;;;;;20.42;8.27;;;;;;;5.27;73.62;97071.12;4374220;32;20130;-83
2023/01/19 08:57:41;;;;;;;18.27;7.15;;;;;;;5.30;73.23;97070.94;4362529;32;20121;-82
2023/01/19 09:00:08;;;;;;;18.55;8.23;;;;;;;5.81;71.26;97064.34;4363459;32;20091;-83
2023/01/19 09:02:33;;;;;;;18.08;7.37;;;;;;;5.05;74.49;97062.91;4363540;32;20138;-82
2023/01/19 09:04:59;;;;;;;20.12;8.43;;;;;;;5.05;73.78;97060.31;4363131;32;20095;-82
2023/01/19 09:07:24;;;;;;;16.95;7.07;;;;;;;5.31;72.88;97067.41;4363422;32;20107;-82
2023/01/19 09:09:50;;;;;;;19.15;7.62;;;;;;;5.37;72.45;97058.34;4361589;32;20129;-82
2023/01/19 09:12:15;;;;;;;17.15;7.43;;;;;;;4.76;74.53;97067.25;4363460;32;20444;-82
2023/01/19 09:14:40;;;;;;;16.75;7.78;;;;;;;5.33;73.50;97054.22;4362247;32;20455;-82
2023/01/19 09:17:06;;;;;;;19.12;7.87;;;;;;;5.42;72.65;97060.66;4364226;32;20110;-82
2023/01/19 09:19:31;;;;;;;18.37;7.05;;;;;;;5.63;72.45;97055.91;4365224;32;20135;-81
2023/01/19 09:21:58;;;;;;;17.77;7.78;;;;;;;5.49;73.06;97069.81;4365218;32;20095;-82
2023/01/19 09:24:24;;;;;;;17.77;7.80;;;;;;;5.45;72.53;97077.00;4364321;32;20162;-81
2023/01/19 09:26:49;;;;;;;18.05;7.72;;;;;;;5.82;71.70;97076.50;4365240;32;20154;-81
2023/01/19 09:29:15;;;;;;;17.52;7.25;;;;;;;5.74;71.97;97074.34;4363787;32;20118;-82
2023/01/19 09:31:40;;;;;;;19.20;7.72;;;;;;;5.19;73.39;97065.50;4364178;32;20491;-81
2023/01/19 09:34:05;;;;;;;17.50;7.57;;;;;;;4.83;76.05;97066.81;4365242;32;20095;-82
2023/01/19 09:36:31;;;;;;;21.70;7.80;;;;;;;5.43;73.07;97057.97;4365299;32;20095;-82
2023/01/19 09:38:57;;;;;;;19.12;7.45;;;;;;;5.34;72.46;97070.75;4365305;32;20092;-82
2023/01/19 09:41:24;;;;;;;18.40;8.23;;;;;;;5.69;71.70;97069.41;4365293;32;20129;-81
2023/01/19 09:43:53;;;;;;;19.58;8.23;;;;;;;5.47;72.39;97076.91;4364140;32;20146;-81
2023/01/19 09:46:23;;;;;;;20.90;8.70;;;;;;;5.84;71.18;97067.59;4365020;32;20078;-82
2023/01/19 09:48:57;;;;;;;17.77;7.70;;;;;;;5.96;70.60;97052.97;4363896;32;20515;-82
2023/01/19 09:51:27;;;;;;;18.98;8.10;;;;;;;5.40;72.10;97062.53;4364063;32;20464;-82
2023/01/19 09:54:15;;;;;;;19.17;7.80;;;;;;;5.95;70.57;97056.53;4365301;32;20177;-82
2023/01/19 09:56:41;;;;;;;16.87;7.25;;;;;;;5.78;71.16;97062.78;4364014;32;20107;-82
2023/01/19 09:59:24;;;;;;;18.10;7.03;;;;;;;5.62;70.78;97065.50;4364081;32;20099;-82
2023/01/19 10:02:03;;;;;;;17.48;7.18;;;;;;;5.46;71.79;97075.22;4363981;32;20115;-82
2023/01/19 10:04:37;;;;;;;16.50;7.35;;;;;;;5.40;71.19;97075.59;4363945;32;20098;-82
2023/01/19 10:07:28;;;;;;;16.92;7.62;;;;;;;5.64;69.94;97063.66;4365137;32;20105;-81
2023/01/19 10:10:17;;;;;;;16.10;6.78;;;;;;;5.20;71.72;97061.16;4361711;32;20079;-82
2023/01/19 10:13:04;;;;;;;15.70;6.68;;;;;;;4.83;73.52;97076.38;4363788;32;20376;-81
2023/01/19 10:16:01;;;;;;;15.55;6.50;;;;;;;4.50;74.24;97086.09;4363731;32;20407;-82
2023/01/19 10:18:47;;;;;;;14.43;6.45;;;;;;;5.03;72.15;97077.81;4333204;33;20203;-82
2023/01/19 10:21:32;;;;;;;15.32;6.62;;;;;;;4.90;72.73;97077.69;4321234;33;20114;-81
2023/01/19 10:24:05;;;;;;;16.48;6.32;;;;;;;4.85;72.95;97075.38;4333273;33;20143;-82
2023/01/19 10:26:42;;;;;;;16.92;6.87;;;;;;;4.91;72.51;97076.78;4333133;33;20404;-82
2023/01/19 10:29:35;;;;;;;17.17;6.80;;;;;;;4.68;73.44;97080.75;4320718;33;20083;-81
2023/01/19 10:32:13;;;;;;;15.20;6.78;;;;;;;5.02;72.43;97076.13;4327599;33;20499;-81
2023/01/19 10:34:40;;;;;;;;;;;;;;;5.06;71.91;97072.41;4333504;33;20172;-82
2023/01/19 10:37:26;;;;;;;14.57;6.62;;;;;;;4.85;72.25;97075.38;4333120;33;20063;-81
2023/01/19 10:39:54;;;;;;;17.23;6.70;;;;;;;4.93;71.61;97074.94;4333134;33;20104;-81
2023/01/19 10:42:20;;;;;;;14.75;6.87;;;;;;;5.01;71.54;97077.91;4320644;33;20133;-82
2023/01/19 10:44:45;;;;;;;15.07;6.90;;;;;;;4.91;71.64;97079.41;4320682;33;20140;-81
2023/01/19 10:47:19;;;;;;;15.63;7.18;;;;;;;5.05;70.93;97094.22;4332967;33;20112;-81
2023/01/19 10:49:46;;;;;;;17.12;6.80;;;;;;;4.66;72.33;97093.03;4320781;33;20153;-81
2023/01/19 10:52:26;;;;;;;16.15;7.47;;;;;;;4.70;72.54;97099.75;4320824;33;20079;-81
2023/01/19 10:54:51;;;;;;;14.73;6.65;;;;;;;4.94;71.65;97097.47;4342940;32;20087;-82
2023/01/19 10:57:29;;;;;;;14.57;6.75;;;;;;;4.89;71.63;97092.53;4364765;32;20113;-82
2023/01/19 10:59:55;;;;;;;14.75;6.75;;;;;;;4.89;71.40;97102.97;4364759;32;20109;-81
2023/01/19 11:02:28;;;;;;;13.15;6.20;;;;;;;4.96;70.92;97107.81;4363542;32;20386;-82
2023/01/19 11:04:56;;;;;;;14.43;6.40;;;;;;;4.39;72.41;97103.28;4364624;32;20107;-81
2023/01/19 11:07:24;;;;;;;14.48;6.28;;;;;;;5.07;70.54;97102.81;4363751;32;20111;-82
2023/01/19 11:10:22;;;;;;;14.60;6.78;;;;;;;4.60;71.76;97107.25;4363340;32;20484;-82
2023/01/19 11:13:06;;;;;;;13.02;5.37;;;;;;;4.65;71.49;97105.22;4364667;32;20079;-82
2023/01/19 11:15:50;;;;;;;14.23;6.10;;;;;;;4.69;70.72;97098.91;4363648;32;20712;-82
2023/01/19 11:18:30;;;;;;;13.32;5.30;;;;;;;5.13;69.29;97094.59;4364625;32;20153;-82
2023/01/19 11:21:07;;;;;;;13.40;5.20;;;;;;;4.97;69.29;97093.84;4363338;32;20521;-82
2023/01/19 11:23:43;;;;;;;12.82;5.22;;;;;;;4.77;69.54;97088.03;4363444;32;20083;-82
2023/01/19 11:26:23;;;;;;;14.77;5.53;;;;;;;5.15;69.34;97086.69;4375596;32;20153;-82
2023/01/19 11:28:50;;;;;;;12.43;5.32;;;;;;;5.27;68.74;97080.72;4364644;32;20455;-82
2023/01/19 11:31:27;;;;;;;12.48;5.10;;;;;;;5.17;69.00;97085.66;4363239;32;20079;-82
2023/01/19 11:33:55;;;;;;;12.55;5.45;;;;;;;5.29;68.09;97079.72;4364611;32;20080;-82
2023/01/19 11:36:32;;;;;;;13.77;5.87;;;;;;;5.16;69.32;97085.75;4363182;32;20091;-82
2023/01/19 11:39:19;;;;;;;14.02;5.97;;;;;;;4.55;70.75;97095.41;4362810;32;20106;-82
2023/01/19 11:41:48;;;;;;;13.18;5.45;;;;;;;4.48;71.67;97101.00;4364301;32;20112;-82
2023/01/19 11:44:35;;;;;;;14.77;6.03;;;;;;;4.87;70.42;97097.00;4375680;32;20473;-82
2023/01/19 11:47:22;;;;;;;15.02;7.03;;;;;;;4.33;72.12;97104.47;4364743;32;20116;-82
2023/01/19 11:49:59;;;;;;;14.68;6.20;;;;;;;4.28;73.36;97099.50;4364787;32;20087;-82
2023/01/19 11:52:26;;;;;;;15.90;6.20;;;;;;;4.52;72.63;97105.09;4364373;32;20138;-82
2023/01/19 11:55:00;;;;;;;15.27;6.68;;;;;;;4.64;72.90;97106.16;4350684;32;20456;-82